Time;durP1;ratioP1;P1;durP2;ratioP2;P2;SDS_P1;SDS_P2;PMS_P1;PMS_P2;Temp;Humidity;BMP_temperature;BMP_pressure;BME280_temperature;BME280_humidity;BME280_pressure;Samples;Min_cycle;Max_cycle;Signal;HPM_P1;HPM_P2
2022/09/13 00:01:12;;;;;;;16.38;10.95;;;;;;;31.49;36.16;101051.84;5016274;28;20088;-71
2022/09/13 00:03:37;;;;;;;15.25;10.40;;;;;;;31.01;37.44;101047.34;5060596;28;20034;-72
2022/09/13 00:06:11;;;;;;;14.07;10.85;;;;;;;30.98;37.17;101042.22;5033285;28;20021;-71
2022/09/13 00:08:37;;;;;;;15.80;10.93;;;;;;;31.25;36.68;101034.25;5014104;28;20401;-71
2022/09/13 00:11:03;;;;;;;14.95;10.57;;;;;;;31.65;36.05;101039.56;5031198;28;20041;-71
2022/09/13 00:13:28;;;;;;;15.57;9.93;;;;;;;31.83;35.71;101037.78;5016474;28;20030;-71
2022/09/13 00:15:54;;;;;;;12.07;10.05;;;;;;;31.49;36.45;101034.75;5014295;28;20041;-71
2022/09/13 00:18:19;;;;;;;13.27;9.85;;;;;;;31.00;37.48;101037.56;5025759;28;20504;-71
2022/09/13 00:20:45;;;;;;;13.57;9.25;;;;;;;31.53;36.22;101034.34;5021906;28;20442;-72
2022/09/13 00:23:11;;;;;;;12.50;9.93;;;;;;;31.75;35.69;101034.97;5015517;28;20025;-72
2022/09/13 00:25:36;;;;;;;13.32;10.10;;;;;;;31.14;37.25;101039.81;5013854;28;20112;-71
2022/09/13 00:28:03;;;;;;;15.65;9.57;;;;;;;31.49;36.58;101030.22;5029335;28;20416;-71
2022/09/13 00:30:29;;;;;;;14.68;10.05;;;;;;;31.41;36.96;101027.41;5023576;28;20033;-72
2022/09/13 00:32:55;;;;;;;10.10;8.98;;;;;;;31.38;37.10;101024.97;5025129;28;20032;-72
2022/09/13 00:35:20;;;;;;;11.15;8.73;;;;;;;31.37;37.23;101029.53;5032808;28;20040;-71
2022/09/13 00:37:45;;;;;;;12.43;9.48;;;;;;;31.30;37.29;101031.97;5032864;28;20116;-71
2022/09/13 00:40:11;;;;;;;11.32;8.70;;;;;;;31.27;37.46;101034.97;5025264;28;20029;-72
2022/09/13 00:42:36;;;;;;;10.77;8.63;;;;;;;31.30;37.40;101031.97;5033652;28;20029;-71
2022/09/13 00:45:15;;;;;;;10.65;8.18;;;;;;;31.29;37.16;101029.44;5034848;28;20037;-71
2022/09/13 00:47:47;;;;;;;15.77;10.10;;;;;;;31.19;37.46;101028.59;5032456;28;20026;-72
2022/09/13 00:50:16;;;;;;;;;;;;;;;31.74;36.58;101039.53;5028036;28;20060;-71
2022/09/13 00:52:46;;;;;;;14.70;8.73;;;;;;;31.44;36.96;101030.66;5054126;28;20358;-72
2022/09/13 00:55:22;;;;;;;12.90;9.02;;;;;;;31.88;36.05;101040.03;5014267;28;20500;-72
2022/09/13 00:57:48;;;;;;;11.57;8.57;;;;;;;31.55;36.61;101042.28;5013442;28;20022;-72
2022/09/13 01:00:17;;;;;;;11.52;8.63;;;;;;;31.32;37.05;101034.53;5045788;28;20026;-71
2022/09/13 01:02:48;;;;;;;12.38;7.90;;;;;;;31.17;37.41;101036.81;5013509;28;20029;-71
2022/09/13 01:05:17;;;;;;;14.02;9.70;;;;;;;31.43;37.00;101042.44;5014690;28;20429;-71
2022/09/13 01:07:43;;;;;;;15.82;9.15;;;;;;;31.29;37.13;101051.03;5019919;28;20095;-71
2022/09/13 01:10:09;;;;;;;12.88;9.00;;;;;;;30.63;38.50;101063.41;5024607;28;20474;-72
2022/09/13 01:12:56;;;;;;;16.27;8.70;;;;;;;30.90;37.57;101057.31;5023232;28;20056;-71
2022/09/13 01:15:21;;;;;;;13.27;8.85;;;;;;;31.07;37.62;101053.03;5032295;28;20552;-71
2022/09/13 01:17:48;;;;;;;12.30;9.07;;;;;;;31.23;37.10;101049.75;5025683;28;20116;-71
2022/09/13 01:20:14;;;;;;;11.50;9.07;;;;;;;31.12;37.37;101044.53;5034132;28;20072;-72
2022/09/13 01:23:25;;;;;;;11.82;9.32;;;;;;;31.32;37.25;101039.91;5027952;28;20033;-71
2022/09/13 01:26:33;;;;;;;11.63;8.82;;;;;;;31.35;37.47;101044.19;5032691;28;20040;-71
2022/09/13 01:29:24;;;;;;;12.30;9.88;;;;;;;31.14;37.38;101047.94;5005325;28;20041;-71
2022/09/13 01:32:26;;;;;;;11.85;9.20;;;;;;;30.85;37.71;101043.38;5032088;28;20386;-71
2022/09/13 01:35:22;;;;;;;15.02;9.75;;;;;;;31.14;37.22;101039.81;5023457;28;20057;-72
2022/09/13 01:38:05;;;;;;;14.15;9.63;;;;;;;31.13;37.41;101033.59;5052187;28;20042;-71
2022/09/13 01:41:07;;;;;;;14.77;9.10;;;;;;;30.98;38.47;101034.13;5012673;28;20133;-72
2022/09/13 01:43:55;;;;;;;13.02;9.18;;;;;;;31.08;37.98;101027.75;5011734;28;20033;-72
2022/09/13 01:46:32;;;;;;;11.73;8.95;;;;;;;30.83;38.40;101022.94;5031621;28;20057;-72
2022/09/13 01:49:15;;;;;;;14.52;10.15;;;;;;;31.22;37.66;101018.34;5028334;28;20029;-71
2022/09/13 01:51:56;;;;;;;13.93;10.15;;;;;;;31.14;37.82;101020.94;5012992;28;20117;-72
2022/09/13 01:54:31;;;;;;;13.48;9.25;;;;;;;30.99;38.76;101019.66;5023871;28;20029;-72
2022/09/13 01:57:02;;;;;;;13.40;9.57;;;;;;;31.32;37.86;101022.88;5028514;28;20037;-71
2022/09/13 01:59:42;;;;;;;18.45;9.85;;;;;;;31.20;37.64;101022.19;5011469;28;20029;-72
2022/09/13 02:02:16;;;;;;;15.15;10.20;;;;;;;31.24;37.54;101016.38;5022492;28;20511;-72
2022/09/13 02:04:53;;;;;;;14.63;10.25;;;;;;;31.01;38.05;101015.81;5020808;28;20030;-71
2022/09/13 02:07:26;;;;;;;14.52;9.52;;;;;;;31.09;38.09;101023.22;5018323;28;20126;-72
2022/09/13 02:10:01;;;;;;;13.43;9.55;;;;;;;30.90;38.08;101008.72;5013924;28;20046;-71
2022/09/13 02:12:29;;;;;;;12.93;9.38;;;;;;;31.06;37.97;101012.72;5011078;28;20437;-72
2022/09/13 02:15:06;;;;;;;11.27;9.23;;;;;;;31.15;38.15;101011.84;5011881;28;20030;-71
2022/09/13 02:17:37;;;;;;;10.48;8.73;;;;;;;31.05;38.40;101013.69;5030895;28;20029;-71
2022/09/13 02:20:20;;;;;;;13.75;9.32;;;;;;;31.41;37.60;101016.59;5029433;28;20443;-72
2022/09/13 02:22:53;;;;;;;12.18;10.40;;;;;;;31.35;37.83;101009.09;5063841;28;20413;-72
2022/09/13 02:25:21;;;;;;;11.13;8.82;;;;;;;31.48;37.38;101012.31;5028651;28;20044;-72
2022/09/13 02:27:51;;;;;;;10.15;8.45;;;;;;;30.98;38.12;101021.47;5013978;28;20030;-71
2022/09/13 02:30:18;;;;;;;15.23;9.18;;;;;;;31.06;37.97;101018.09;5028356;28;20141;-72
2022/09/13 02:32:55;;;;;;;12.63;9.00;;;;;;;31.70;36.97;101026.47;5010898;28;20120;-72
2022/09/13 02:35:31;;;;;;;11.52;8.43;;;;;;;31.22;37.72;101017.50;5011100;28;20113;-71
2022/09/13 02:38:02;;;;;;;11.57;8.95;;;;;;;31.09;37.62;101023.22;5027950;28;20018;-71
2022/09/13 02:40:34;;;;;;;11.85;9.48;;;;;;;31.10;37.95;101024.91;5029752;28;20091;-72
2022/09/13 02:43:25;;;;;;;15.60;9.25;;;;;;;31.10;37.78;101022.22;5030473;28;20026;-71
2022/09/13 02:46:06;;;;;;;11.57;9.00;;;;;;;31.02;38.10;101022.94;5012670;28;20025;-72
2022/09/13 02:49:06;;;;;;;14.77;8.95;;;;;;;31.08;37.87;101021.53;5011973;28;20028;-71
2022/09/13 02:51:47;;;;;;;11.57;9.05;;;;;;;31.15;37.91;101019.94;5044227;28;20129;-72
2022/09/13 02:54:35;;;;;;;10.18;8.10;;;;;;;31.17;37.60;101012.53;5043727;28;20041;-72
2022/09/13 02:57:17;;;;;;;12.23;8.05;;;;;;;31.05;37.91;101011.00;5024047;28;20033;-72
2022/09/13 02:59:45;;;;;;;14.45;8.65;;;;;;;31.09;37.74;101017.81;5032272;28;20031;-72
2022/09/13 03:02:15;;;;;;;12.20;8.73;;;;;;;31.14;37.78;101010.13;5013495;28;20026;-72
2022/09/13 03:04:41;;;;;;;12.52;8.65;;;;;;;31.07;38.08;101009.88;5029156;28;20434;-72
2022/09/13 03:07:13;;;;;;;12.15;8.80;;;;;;;31.22;37.56;101017.50;5029960;28;20127;-71
2022/09/13 03:09:45;;;;;;;17.30;8.60;;;;;;;31.19;37.79;101021.34;5022778;28;20029;-72
2022/09/13 03:12:30;;;;;;;10.48;8.32;;;;;;;31.08;38.14;101026.94;5014968;28;20017;-72
2022/09/13 03:15:33;;;;;;;13.48;9.45;;;;;;;31.01;38.01;101025.75;5028649;28;20330;-72
2022/09/13 03:18:33;;;;;;;15.00;9.07;;;;;;;30.90;38.36;101024.94;5023711;28;20179;-72
2022/09/13 03:21:14;;;;;;;11.05;8.52;;;;;;;31.09;38.27;101025.91;5025864;28;20140;-71
2022/09/13 03:24:16;;;;;;;11.27;8.52;;;;;;;31.05;38.44;101021.78;5029830;28;20033;-71
2022/09/13 03:27:20;;;;;;;11.60;8.43;;;;;;;31.21;38.03;101023.91;5027936;28;20490;-71
2022/09/13 03:30:02;;;;;;;10.95;8.50;;;;;;;31.32;37.40;101025.59;5030063;28;20033;-72
2022/09/13 03:33:01;;;;;;;12.05;8.95;;;;;;;31.01;38.32;101023.03;5012262;28;20165;-72
2022/09/13 03:35:48;;;;;;;10.63;8.35;;;;;;;31.20;38.17;101025.75;5013038;28;20038;-71
2022/09/13 03:38:28;;;;;;;11.40;8.25;;;;;;;30.87;38.51;101017.13;5052213;28;20057;-71
2022/09/13 03:41:04;;;;;;;12.25;8.82;;;;;;;31.12;37.77;101028.34;5030442;28;20387;-71
2022/09/13 03:43:35;;;;;;;11.43;8.98;;;;;;;31.05;38.26;101032.59;5027977;28;20021;-72
2022/09/13 03:46:08;;;;;;;13.35;8.85;;;;;;;30.87;38.62;101036.00;5025741;28;20473;-72
2022/09/13 03:48:36;;;;;;;15.02;9.30;;;;;;;30.93;38.19;101030.03;5028486;28;20060;-73
2022/09/13 03:51:06;;;;;;;10.93;8.85;;;;;;;31.00;37.81;101029.47;5027171;28;20029;-72
2022/09/13 03:53:36;;;;;;;14.60;9.40;;;;;;;30.84;38.09;101036.28;5029325;28;20029;-72
2022/09/13 03:56:15;;;;;;;12.95;8.80;;;;;;;30.65;39.00;101037.13;5030244;28;20021;-72
2022/09/13 03:58:41;;;;;;;14.25;9.18;;;;;;;30.92;38.05;101033.72;5016713;28;20026;-72
2022/09/13 04:01:09;;;;;;;12.32;9.70;;;;;;;30.89;38.54;101028.59;5042863;28;20030;-72
2022/09/13 04:03:35;;;;;;;13.93;8.93;;;;;;;30.85;38.09;101029.88;5017009;28;20085;-72
2022/09/13 04:06:00;;;;;;;12.35;8.65;;;;;;;31.18;37.30;101026.91;5010928;28;20501;-72
2022/09/13 04:08:25;;;;;;;10.93;8.25;;;;;;;30.70;38.82;101034.03;5021597;28;20141;-71
2022/09/13 04:10:51;;;;;;;15.07;9.93;;;;;;;30.50;39.21;101044.81;5028008;28;20385;-71
2022/09/13 04:13:16;;;;;;;13.93;8.35;;;;;;;30.49;38.69;101044.94;5029363;28;20090;-72
2022/09/13 04:15:42;;;;;;;16.05;9.57;;;;;;;30.35;39.05;101046.16;5017743;28;20029;-72
2022/09/13 04:18:08;;;;;;;15.68;9.25;;;;;;;30.25;39.26;101046.16;5013318;28;20196;-72
2022/09/13 04:20:34;;;;;;;12.32;8.48;;;;;;;30.32;39.20;101047.28;5029920;28;20500;-72
2022/09/13 04:23:00;;;;;;;14.15;9.43;;;;;;;30.48;38.50;101044.09;5029106;28;20025;-72
2022/09/13 04:25:25;;;;;;;15.55;9.20;;;;;;;30.58;38.44;101044.09;5011197;28;20040;-73
2022/09/13 04:27:55;;;;;;;13.38;9.18;;;;;;;30.33;38.92;101048.16;5010228;28;20033;-72
2022/09/13 04:30:21;;;;;;;12.32;9.27;;;;;;;30.26;39.26;101042.47;5054572;28;20079;-72
2022/09/13 04:32:46;;;;;;;17.60;9.27;;;;;;;30.15;39.80;101050.69;5027601;28;20033;-72
2022/09/13 04:35:11;;;;;;;12.65;9.70;;;;;;;29.90;40.11;101056.41;5023394;28;20113;-72
2022/09/13 04:37:37;;;;;;;12.75;9.60;;;;;;;30.14;40.01;101049.81;5010227;28;20068;-72
2022/09/13 04:40:05;;;;;;;12.50;8.70;;;;;;;30.04;40.47;101055.16;5013206;28;20068;-72
2022/09/13 04:42:30;;;;;;;11.13;9.25;;;;;;;30.10;40.26;101051.06;5029625;28;20038;-72
2022/09/13 04:44:56;;;;;;;12.57;9.10;;;;;;;30.16;39.98;101053.22;5028011;28;20025;-72
2022/09/13 04:47:22;;;;;;;14.70;9.52;;;;;;;30.21;39.86;101064.47;5028930;28;20099;-72
2022/09/13 04:49:47;;;;;;;14.38;9.63;;;;;;;30.43;39.46;101057.09;5031262;28;20049;-73
2022/09/13 04:52:13;;;;;;;13.63;8.88;;;;;;;30.36;39.66;101054.09;5029934;28;20117;-73
2022/09/13 04:54:38;;;;;;;14.30;9.45;;;;;;;30.21;40.22;101061.75;5012763;28;20393;-72
2022/09/13 04:57:04;;;;;;;12.50;8.90;;;;;;;30.16;39.98;101064.00;5013067;28;20033;-72
2022/09/13 04:59:30;;;;;;;15.52;9.43;;;;;;;29.83;40.75;101065.13;5012992;28;20557;-72
2022/09/13 05:01:56;;;;;;;10.73;8.93;;;;;;;29.91;40.44;101070.72;5027571;28;20120;-72
2022/09/13 05:04:21;;;;;;;12.45;9.48;;;;;;;29.99;40.35;101067.34;5033233;28;20017;-72
2022/09/13 05:06:47;;;;;;;14.02;9.60;;;;;;;30.07;40.14;101065.66;5032129;28;20026;-72
2022/09/13 05:09:13;;;;;;;11.57;9.13;;;;;;;30.28;39.97;101072.81;5029528;28;20056;-72
2022/09/13 05:11:39;;;;;;;14.00;9.95;;;;;;;30.22;39.92;101070.69;5032137;28;20021;-72
2022/09/13 05:14:05;;;;;;;15.60;9.43;;;;;;;30.08;40.74;101066.53;5022543;28;20037;-72
2022/09/13 05:16:32;;;;;;;13.68;9.15;;;;;;;30.07;40.25;101070.22;5024910;28;20100;-73
2022/09/13 05:18:59;;;;;;;13.63;8.82;;;;;;;30.19;39.96;101076.38;5022479;28;20501;-73
2022/09/13 05:21:26;;;;;;;11.55;8.60;;;;;;;30.39;40.01;101078.09;5021937;28;20036;-73
2022/09/13 05:23:53;;;;;;;10.60;9.05;;;;;;;30.34;39.93;101082.22;5025094;28;20080;-72
2022/09/13 05:26:20;;;;;;;16.92;9.30;;;;;;;30.20;39.97;101076.22;5034525;28;20032;-73
2022/09/13 05:28:46;;;;;;;11.02;9.30;;;;;;;30.28;40.32;101078.22;5030708;28;20044;-73
2022/09/13 05:31:15;;;;;;;15.27;9.82;;;;;;;30.26;40.61;101069.41;5030510;28;20484;-72
2022/09/13 05:33:41;;;;;;;11.68;9.43;;;;;;;30.51;39.81;101069.91;5031242;28;20140;-73
2022/09/13 05:36:06;;;;;;;13.23;9.70;;;;;;;30.32;40.34;101073.41;5028435;28;20536;-73
2022/09/13 05:38:32;;;;;;;16.00;10.15;;;;;;;30.39;39.89;101079.94;5025562;28;20558;-73
2022/09/13 05:41:00;;;;;;;14.88;9.73;;;;;;;30.19;40.15;101074.50;5023821;28;20063;-71
2022/09/13 05:43:27;;;;;;;14.20;10.48;;;;;;;30.37;39.56;101081.94;5022509;28;20026;-71
2022/09/13 05:46:09;;;;;;;13.32;10.52;;;;;;;30.20;40.15;101076.22;5012749;28;20421;-71
2022/09/13 05:48:36;;;;;;;16.75;11.00;;;;;;;30.23;40.39;101073.25;5045464;28;20034;-71
2022/09/13 05:51:13;;;;;;;14.90;10.10;;;;;;;30.38;39.87;101078.25;5016490;28;20359;-71
2022/09/13 05:53:40;;;;;;;17.45;10.07;;;;;;;30.27;40.46;101082.75;5029574;28;20033;-73
2022/09/13 05:56:08;;;;;;;12.30;9.38;;;;;;;30.55;39.63;101080.28;5030815;28;20437;-74
2022/09/13 05:58:34;;;;;;;16.77;11.45;;;;;;;30.46;39.67;101086.53;5032819;28;20021;-73
2022/09/13 06:01:00;;;;;;;13.73;11.30;;;;;;;30.47;39.66;101082.81;5032160;28;20034;-73
2022/09/13 06:03:25;;;;;;;16.73;11.73;;;;;;;30.60;39.47;101083.41;5028453;28;20029;-73
2022/09/13 06:05:57;;;;;;;16.20;11.13;;;;;;;30.71;39.31;101078.91;5024696;28;20032;-73
2022/09/13 06:08:28;;;;;;;15.68;11.73;;;;;;;30.72;39.40;101086.84;5031210;28;20040;-73
2022/09/13 06:11:01;;;;;;;16.33;12.25;;;;;;;30.67;39.66;101080.16;5024979;28;20026;-73
2022/09/13 06:13:28;;;;;;;16.15;13.07;;;;;;;30.43;40.43;101094.84;5012220;28;20119;-73
2022/09/13 06:15:55;;;;;;;14.35;10.60;;;;;;;30.64;39.44;101089.38;5027714;28;20032;-73
2022/09/13 06:18:21;;;;;;;18.50;13.43;;;;;;;30.40;40.22;101095.13;5020544;28;20115;-73
2022/09/13 06:20:47;;;;;;;19.25;12.90;;;;;;;30.67;40.01;101091.78;5012652;28;20033;-73
2022/09/13 06:23:13;;;;;;;19.70;13.30;;;;;;;30.81;39.54;101100.47;5013190;28;20052;-73
2022/09/13 06:25:40;;;;;;;20.40;15.25;;;;;;;30.81;40.09;101101.31;5020405;28;20477;-73
2022/09/13 06:28:05;;;;;;;22.77;14.85;;;;;;;30.96;39.67;101082.84;5031759;28;20064;-73
2022/09/13 06:30:31;;;;;;;20.42;15.90;;;;;;;30.86;40.13;101087.38;5031847;28;20113;-73
2022/09/13 06:32:56;;;;;;;21.63;15.68;;;;;;;31.04;40.04;101084.88;5023901;28;20033;-73
2022/09/13 06:35:22;;;;;;;24.23;16.30;;;;;;;31.11;40.11;101086.00;5026766;28;20543;-73
2022/09/13 06:37:47;;;;;;;27.65;15.90;;;;;;;31.11;40.16;101088.72;5031426;28;20033;-73
2022/09/13 06:40:12;;;;;;;20.83;14.48;;;;;;;31.29;39.97;101084.25;5031738;28;20466;-73
2022/09/13 06:42:38;;;;;;;19.42;14.00;;;;;;;31.23;40.22;101084.84;5031149;28;20047;-73
2022/09/13 06:45:05;;;;;;;21.70;14.32;;;;;;;31.29;40.09;101086.97;5026370;28;20366;-73
2022/09/13 06:47:30;;;;;;;17.23;12.82;;;;;;;30.97;41.53;101089.97;5015163;28;20033;-73
2022/09/13 06:49:56;;;;;;;20.98;13.48;;;;;;;31.32;40.46;101093.09;5019724;28;20026;-73
2022/09/13 06:52:22;;;;;;;17.20;12.27;;;;;;;31.12;41.25;101090.41;5032543;28;20025;-73
2022/09/13 06:54:47;;;;;;;18.30;12.15;;;;;;;31.66;40.40;101089.91;5015268;28;20121;-73
2022/09/13 06:57:12;;;;;;;15.55;11.02;;;;;;;31.54;40.67;101092.72;5029978;28;20394;-73
2022/09/13 06:59:38;;;;;;;16.05;10.32;;;;;;;32.19;39.51;101094.69;5023397;28;20027;-73
2022/09/13 07:02:03;;;;;;;14.73;10.05;;;;;;;31.76;40.47;101090.72;4997850;28;20683;-73
2022/09/13 07:04:31;;;;;;;12.15;9.25;;;;;;;31.90;39.91;101086.66;5029239;28;20394;-73
2022/09/13 07:06:59;;;;;;;12.70;9.52;;;;;;;32.50;38.97;101094.31;5028195;28;20120;-73
2022/09/13 07:09:25;;;;;;;14.98;8.43;;;;;;;32.44;39.13;101090.38;5030001;28;20068;-73
2022/09/13 07:11:55;;;;;;;12.07;7.55;;;;;;;32.51;38.84;101096.03;5031472;28;20021;-73
2022/09/13 07:14:28;;;;;;;7.95;6.28;;;;;;;31.51;40.29;101093.03;5025510;28;20084;-73
2022/09/13 07:16:54;;;;;;;9.25;6.32;;;;;;;31.08;42.15;101094.41;5023137;28;20030;-72
2022/09/13 07:19:21;;;;;;;10.95;6.40;;;;;;;31.80;40.60;101092.13;5028552;28;20091;-73
2022/09/13 07:21:48;;;;;;;7.20;5.30;;;;;;;31.22;41.42;101093.09;5025738;28;20124;-73
2022/09/13 07:24:14;;;;;;;9.73;5.20;;;;;;;31.22;41.45;101093.94;5021591;28;20493;-73
2022/09/13 07:26:39;;;;;;;8.70;5.25;;;;;;;31.73;40.50;101096.41;5026734;28;20053;-73
2022/09/13 07:29:07;;;;;;;8.25;4.28;;;;;;;31.24;41.91;101102.75;5016576;28;20064;-73
2022/09/13 07:31:37;;;;;;;8.25;4.25;;;;;;;30.87;42.13;101092.66;5009777;28;20490;-73
2022/09/13 07:34:05;;;;;;;6.47;4.78;;;;;;;31.52;41.60;101105.53;5025888;28;20037;-73
2022/09/13 07:36:32;;;;;;;7.68;4.60;;;;;;;31.57;40.76;101103.25;5015957;28;20059;-73
2022/09/13 07:38:58;;;;;;;5.97;4.47;;;;;;;31.99;40.69;101109.25;5021930;28;20029;-73
2022/09/13 07:41:25;;;;;;;9.82;4.57;;;;;;;32.45;39.27;101102.03;5022565;28;20104;-73
2022/09/13 07:43:51;;;;;;;13.77;5.97;;;;;;;32.14;40.08;101105.06;5018486;28;20175;-73
2022/09/13 07:46:20;;;;;;;9.00;6.43;;;;;;;30.57;42.71;101110.66;5021540;28;20493;-73
2022/09/13 07:48:46;;;;;;;9.63;6.90;;;;;;;31.36;41.56;101108.00;5028824;28;20060;-73
2022/09/13 07:51:17;;;;;;;7.05;5.43;;;;;;;30.70;42.50;101117.63;5016024;28;20056;-73
2022/09/13 07:53:45;;;;;;;8.55;5.45;;;;;;;31.44;41.24;101113.53;5019650;28;20029;-73
2022/09/13 07:56:12;;;;;;;6.97;3.72;;;;;;;31.47;40.99;101115.91;5018513;28;20069;-73
2022/09/13 07:58:40;;;;;;;10.43;3.50;;;;;;;31.77;40.38;101124.84;5015600;28;20034;-73
2022/09/13 08:01:20;;;;;;;9.55;3.90;;;;;;;31.05;41.53;101129.75;5044520;28;20386;-73
2022/09/13 08:03:56;;;;;;;7.78;2.72;;;;;;;30.59;42.12;101126.69;5015228;28;20029;-73
2022/09/13 08:06:22;;;;;;;5.47;2.78;;;;;;;31.59;40.52;101116.66;5019564;28;20520;-73
2022/09/13 08:08:48;;;;;;;7.85;2.90;;;;;;;30.98;41.73;101128.59;5029446;28;20520;-73
2022/09/13 08:11:22;;;;;;;6.15;2.55;;;;;;;32.83;38.33;101127.16;5014470;28;20029;-73
2022/09/13 08:13:49;;;;;;;5.68;2.92;;;;;;;30.27;41.98;101131.28;5025196;28;20489;-73
2022/09/13 08:16:17;;;;;;;5.85;2.80;;;;;;;31.89;39.54;101123.66;5030039;28;20021;-73
2022/09/13 08:18:48;;;;;;;5.85;2.45;;;;;;;31.93;39.30;101130.47;5029553;28;20021;-73
2022/09/13 08:21:13;;;;;;;4.07;2.47;;;;;;;32.43;37.72;101129.25;5029833;28;20025;-73
2022/09/13 08:23:40;;;;;;;6.78;2.72;;;;;;;32.90;36.90;101128.22;5025783;28;20041;-73
2022/09/13 08:26:07;;;;;;;10.18;2.35;;;;;;;32.89;36.84;101134.69;5025350;28;20033;-72
2022/09/13 08:28:33;;;;;;;4.60;2.20;;;;;;;32.88;36.40;101130.25;5027000;28;20082;-73
2022/09/13 08:31:09;;;;;;;8.50;2.65;;;;;;;32.69;37.15;101130.38;5032906;28;20029;-73
2022/09/13 08:33:35;;;;;;;2.95;2.30;;;;;;;32.83;36.19;101127.16;5028405;28;20478;-75
2022/09/13 08:36:01;;;;;;;6.18;2.60;;;;;;;32.86;36.42;101132.25;5032969;28;20032;-75
2022/09/13 08:38:27;;;;;;;3.28;2.20;;;;;;;32.52;36.92;101135.63;5033031;28;20032;-75
2022/09/13 08:41:01;;;;;;;4.32;2.20;;;;;;;33.28;35.99;101139.75;5025693;28;20057;-74
2022/09/13 08:43:48;;;;;;;6.57;2.65;;;;;;;32.52;37.54;101140.16;5015071;28;20041;-75
2022/09/13 08:46:31;;;;;;;4.10;2.38;;;;;;;32.53;36.86;101137.28;5019971;28;20033;-75
2022/09/13 08:49:05;;;;;;;5.55;2.20;;;;;;;33.31;35.80;101135.91;5033223;28;20366;-75
2022/09/13 08:51:35;;;;;;;5.57;2.58;;;;;;;33.16;36.03;101146.41;5026702;28;20057;-74
2022/09/13 08:54:01;;;;;;;5.70;2.33;;;;;;;33.18;35.92;101146.25;5031162;28;20033;-75
2022/09/13 08:56:30;;;;;;;2.17;1.60;;;;;;;33.56;35.12;101139.63;5033244;28;20481;-75
2022/09/13 08:59:17;;;;;;;5.22;2.03;;;;;;;32.92;36.17;101147.03;5033176;28;20478;-75
2022/09/13 09:02:07;;;;;;;2.53;1.55;;;;;;;33.19;35.63;101148.78;5031905;28;20095;-75
2022/09/13 09:05:12;;;;;;;2.95;1.50;;;;;;;34.45;33.57;101139.44;5043133;28;20029;-74
2022/09/13 09:07:52;;;;;;;1.95;1.65;;;;;;;33.61;34.57;101148.13;5013771;28;20493;-75
2022/09/13 09:10:26;;;;;;;4.68;1.85;;;;;;;33.38;35.04;101144.25;5013231;28;20030;-75
2022/09/13 09:13:02;;;;;;;3.13;1.23;;;;;;;32.58;36.18;101145.81;5043415;28;20022;-75
2022/09/13 09:15:33;;;;;;;4.00;1.40;;;;;;;30.98;39.74;101152.88;5012300;28;20030;-75
2022/09/13 09:18:08;;;;;;;3.75;1.83;;;;;;;32.21;38.09;101144.03;5014794;28;20025;-75
2022/09/13 09:20:45;;;;;;;3.83;1.60;;;;;;;33.79;35.25;101139.13;5017378;28;20164;-75
2022/09/13 09:23:19;;;;;;;3.38;1.20;;;;;;;33.94;34.55;101136.66;5023800;28;20026;-75
2022/09/13 09:25:45;;;;;;;3.03;1.27;;;;;;;33.61;34.90;101142.72;5034189;28;20035;-74
2022/09/13 09:28:13;;;;;;;1.77;1.25;;;;;;;33.88;34.85;101148.16;5033378;28;20025;-75
2022/09/13 09:30:51;;;;;;;3.47;1.10;;;;;;;33.67;34.88;101140.38;5032681;28;20087;-74
2022/09/13 09:33:26;;;;;;;2.70;1.17;;;;;;;33.99;33.86;101137.88;5019326;28;20029;-74
2022/09/13 09:36:13;;;;;;;3.00;1.30;;;;;;;34.76;32.69;101144.25;5060515;28;20103;-74
2022/09/13 09:38:42;;;;;;;6.30;1.30;;;;;;;34.42;33.69;101139.78;5033858;28;20029;-74
2022/09/13 09:41:26;;;;;;;3.38;1.48;;;;;;;33.62;34.43;101139.00;5032084;28;20409;-74
2022/09/13 09:43:52;;;;;;;5.10;1.92;;;;;;;34.31;33.19;101139.06;5013049;28;20409;-75
2022/09/13 09:46:23;;;;;;;2.20;1.40;;;;;;;34.73;32.81;101144.59;5032169;28;20025;-75
2022/09/13 09:48:53;;;;;;;3.15;1.42;;;;;;;33.71;34.56;101141.75;5031685;28;20392;-75
2022/09/13 09:51:21;;;;;;;3.20;1.38;;;;;;;34.31;34.03;101133.63;5031498;28;20441;-75
2022/09/13 09:53:50;;;;;;;2.20;1.00;;;;;;;34.43;33.49;101130.59;5033993;28;20065;-75
2022/09/13 09:56:25;;;;;;;3.95;1.17;;;;;;;34.77;32.47;101137.81;5030583;28;20025;-75
2022/09/13 09:58:53;;;;;;;2.90;0.93;;;;;;;32.40;36.20;101128.72;5032383;28;20104;-74
2022/09/13 10:01:28;;;;;;;2.65;0.80;;;;;;;33.38;35.43;101131.53;5031240;28;20474;-74
2022/09/13 10:04:10;;;;;;;4.65;1.10;;;;;;;33.47;35.22;101129.75;5031358;28;20040;-73
2022/09/13 10:06:40;;;;;;;3.60;0.90;;;;;;;32.86;36.18;101137.66;5031100;28;20033;-73
2022/09/13 10:09:18;;;;;;;5.60;1.25;;;;;;;33.17;35.59;101134.56;5025199;28;20037;-73
2022/09/13 10:11:52;;;;;;;4.72;1.00;;;;;;;33.36;35.47;101135.41;5028191;28;20390;-73
2022/09/13 10:14:38;;;;;;;5.63;0.80;;;;;;;33.17;34.95;101131.88;5028915;28;20121;-73
2022/09/13 10:17:17;;;;;;;4.28;0.85;;;;;;;33.54;34.72;101125.41;5031175;28;20542;-73
2022/09/13 10:19:53;;;;;;;3.35;1.30;;;;;;;34.80;33.10;101121.19;5032467;28;20018;-74
2022/09/13 10:22:19;;;;;;;4.22;0.90;;;;;;;35.24;32.03;101112.75;5020408;28;20509;-74
2022/09/13 10:24:44;;;;;;;4.90;0.85;;;;;;;33.58;33.84;101115.06;5029306;28;20029;-73
2022/09/13 10:27:38;;;;;;;4.18;0.88;;;;;;;34.80;32.61;101115.75;5018263;28;20389;-73
2022/09/13 10:30:05;;;;;;;5.07;1.10;;;;;;;34.29;33.68;101111.25;5028949;28;20052;-73
2022/09/13 10:32:31;;;;;;;4.22;0.90;;;;;;;33.26;34.62;101112.00;5029939;28;20064;-74
2022/09/13 10:35:08;;;;;;;6.38;2.17;;;;;;;33.18;34.34;101103.78;5031440;28;20398;-73
2022/09/13 10:37:35;;;;;;;3.80;0.90;;;;;;;33.48;33.68;101104.34;5030535;28;20044;-74
2022/09/13 10:40:04;;;;;;;5.10;1.00;;;;;;;32.67;35.12;101099.91;5029875;28;20157;-73
2022/09/13 10:42:30;;;;;;;2.90;0.95;;;;;;;30.77;38.43;101113.38;5027373;28;20098;-75
2022/09/13 10:45:02;;;;;;;1.92;0.90;;;;;;;31.81;36.60;101104.63;5029154;28;20541;-73
2022/09/13 10:47:43;;;;;;;2.50;0.90;;;;;;;33.31;34.44;101103.41;5030356;28;20029;-73
2022/09/13 10:50:27;;;;;;;4.38;1.10;;;;;;;33.42;33.13;101113.13;5022207;28;20030;-73
2022/09/13 10:52:55;;;;;;;3.22;0.90;;;;;;;33.53;33.21;101102.00;5014392;28;20108;-73
2022/09/13 10:55:31;;;;;;;5.25;1.25;;;;;;;33.03;34.24;101108.03;5018489;28;20025;-73
2022/09/13 10:58:02;;;;;;;3.80;0.95;;;;;;;33.79;33.31;101109.31;5030721;28;20032;-73
2022/09/13 11:00:42;;;;;;;4.95;1.08;;;;;;;32.64;33.82;101118.16;5018807;28;20034;-73
2022/09/13 11:03:48;;;;;;;5.85;0.93;;;;;;;34.94;31.16;101111.53;5024995;28;20037;-73
2022/09/13 11:06:20;;;;;;;3.38;1.35;;;;;;;33.87;32.67;101108.47;5031294;28;20083;-73
2022/09/13 11:08:45;;;;;;;;;;;;;;;35.23;30.98;101105.63;5029587;28;20030;-74
2022/09/13 11:11:19;;;;;;;8.30;1.60;;;;;;;34.61;31.39;101109.63;5029759;28;19922;-74
2022/09/13 11:14:03;;;;;;;5.78;1.17;;;;;;;33.50;32.90;101107.75;5030037;28;20029;-74
2022/09/13 11:16:47;;;;;;;4.10;0.88;;;;;;;33.58;32.90;101104.22;5016388;28;20481;-74
2022/09/13 11:19:51;;;;;;;4.35;1.77;;;;;;;34.21;31.57;101100.34;5043671;28;20179;-73
2022/09/13 11:22:20;;;;;;;5.78;1.95;;;;;;;33.33;33.19;101101.38;5043189;28;20034;-73
2022/09/13 11:24:54;;;;;;;6.20;1.10;;;;;;;33.32;32.56;101099.69;5049642;28;20025;-74
2022/09/13 11:27:49;;;;;;;4.07;1.33;;;;;;;33.33;33.19;101098.66;5029742;28;20076;-73
2022/09/13 11:30:18;;;;;;;2.53;0.90;;;;;;;34.40;31.18;101103.81;5030340;28;20095;-74
2022/09/13 11:33:05;;;;;;;4.70;1.10;;;;;;;33.71;31.63;101106.53;5031870;28;20484;-74
2022/09/13 11:35:53;;;;;;;3.60;0.82;;;;;;;34.40;29.83;101103.81;5027387;28;20037;-74
2022/09/13 11:39:14;;;;;;;4.75;1.02;;;;;;;34.11;30.23;101105.03;5029496;28;20037;-74
2022/09/13 11:42:14;;;;;;;3.92;1.17;;;;;;;34.01;30.79;101110.59;5011636;28;20049;-74
2022/09/13 11:45:01;;;;;;;1.35;0.90;;;;;;;33.51;31.12;101108.59;5023201;28;20536;-73